KCEC/CEC METAR and TAF weather

Enter ICAO airport designator
Station Type Date Time Source
KCEC METAR 2019/06/19 06:56 UTC NOAA

KCEC 190656Z AUTO 01011G18KT 10SM CLR 12/08 A3006 RMK AO2 SLP178 T01170078


Station Type Date Time Source
KCEC Decoded METAR 2019/06/19 06:56 UTC NOAA

CRESCENT CITY MC NAMARA, CA, United States (KCEC) 41-47N 124-14W
Jun 19, 2019 - 02:56 AM EDT / 2019.06.19 0656 UTC
Wind: from the N (010 degrees) at 13 MPH (11 KT) gusting to 21 MPH (18 KT):0
Visibility: 10 mile(s):0
Sky conditions: clear
Temperature: 53.1 F (11.7 C)
Dew Point: 46.0 F (7.8 C)
Relative Humidity: 76%
Pressure (altimeter): 30.06 in. Hg (1017 hPa)
ob: KCEC 190656Z AUTO 01011G18KT 10SM CLR 12/08 A3006 RMK AO2 SLP178 T01170078
cycle: 7

Station Type Date Time Source
KCEC TAF 2019/06/19 06:42 UTC NOAA

TAF KCEC 190540Z 1906/2006 35016G27KT 6SM HZ SKC
FM191200 34012KT 5SM HZ FEW025
FM191400 35011G19KT 4SM HZ FEW025
FM192100 34023G30KT P6SM SKC

Example: see airport list